sensor_id;sensor_type;location;lat;lon;timestamp;pressure;altitude;pressure_sealevel;temperature
14023;BMP180;7086;48.116;11.580;2022-07-24T00:34:14;95728.00;;;26.70
14023;BMP180;7086;48.116;11.580;2022-07-24T00:36:42;95717.00;;;26.70
14023;BMP180;7086;48.116;11.580;2022-07-24T00:39:12;95726.00;;;26.70
14023;BMP180;7086;48.116;11.580;2022-07-24T00:41:42;95729.00;;;26.70
14023;BMP180;7086;48.116;11.580;2022-07-24T00:44:15;95726.00;;;26.70
14023;BMP180;7086;48.116;11.580;2022-07-24T00:46:45;95740.00;;;26.40
14023;BMP180;7086;48.116;11.580;2022-07-24T00:49:31;95737.00;;;26.60
14023;BMP180;7086;48.116;11.580;2022-07-24T00:52:12;95731.00;;;26.60
14023;BMP180;7086;48.116;11.580;2022-07-24T00:54:40;95731.00;;;26.70
14023;BMP180;7086;48.116;11.580;2022-07-24T00:57:09;95735.00;;;26.70
14023;BMP180;7086;48.116;11.580;2022-07-24T00:59:38;95725.00;;;26.70
14023;BMP180;7086;48.116;11.580;2022-07-24T01:02:06;95728.00;;;26.70
14023;BMP180;7086;48.116;11.580;2022-07-24T01:04:35;95733.00;;;26.70
14023;BMP180;7086;48.116;11.580;2022-07-24T01:07:03;95737.00;;;26.70
14023;BMP180;7086;48.116;11.580;2022-07-24T01:09:34;95731.00;;;26.70
14023;BMP180;7086;48.116;11.580;2022-07-24T01:12:04;95733.00;;;26.60
14023;BMP180;7086;48.116;11.580;2022-07-24T01:14:35;95724.00;;;26.60
14023;BMP180;7086;48.116;11.580;2022-07-24T01:17:05;95726.00;;;26.60
14023;BMP180;7086;48.116;11.580;2022-07-24T01:23:38;95727.00;;;26.50
14023;BMP180;7086;48.116;11.580;2022-07-24T01:26:19;95728.00;;;26.50
14023;BMP180;7086;48.116;11.580;2022-07-24T01:28:49;95722.00;;;26.50
14023;BMP180;7086;48.116;11.580;2022-07-24T01:31:18;95725.00;;;26.40
14023;BMP180;7086;48.116;11.580;2022-07-24T01:33:47;95719.00;;;26.40
14023;BMP180;7086;48.116;11.580;2022-07-24T01:36:16;95723.00;;;26.40
14023;BMP180;7086;48.116;11.580;2022-07-24T01:38:45;95700.00;;;26.40
14023;BMP180;7086;48.116;11.580;2022-07-24T01:41:13;95718.00;;;26.30
14023;BMP180;7086;48.116;11.580;2022-07-24T01:43:42;95710.00;;;26.30
14023;BMP180;7086;48.116;11.580;2022-07-24T01:46:12;95716.00;;;26.30
14023;BMP180;7086;48.116;11.580;2022-07-24T01:48:42;95718.00;;;26.30
14023;BMP180;7086;48.116;11.580;2022-07-24T01:51:21;95722.00;;;26.30
14023;BMP180;7086;48.116;11.580;2022-07-24T02:01:33;95706.00;;;26.20
14023;BMP180;7086;48.116;11.580;2022-07-24T02:04:16;95702.00;;;26.20
14023;BMP180;7086;48.116;11.580;2022-07-24T02:06:48;95700.00;;;26.30
14023;BMP180;7086;48.116;11.580;2022-07-24T02:09:29;95706.00;;;26.30
14023;BMP180;7086;48.116;11.580;2022-07-24T02:12:00;95702.00;;;26.20
14023;BMP180;7086;48.116;11.580;2022-07-24T02:14:42;95701.00;;;26.20
14023;BMP180;7086;48.116;11.580;2022-07-24T02:17:27;95698.00;;;26.20
14023;BMP180;7086;48.116;11.580;2022-07-24T02:20:13;95689.00;;;26.20
14023;BMP180;7086;48.116;11.580;2022-07-24T02:22:55;95696.00;;;26.20
14023;BMP180;7086;48.116;11.580;2022-07-24T02:25:37;95695.00;;;26.10
14023;BMP180;7086;48.116;11.580;2022-07-24T02:28:18;95695.00;;;26.10
14023;BMP180;7086;48.116;11.580;2022-07-24T02:30:46;95691.00;;;26.10
14023;BMP180;7086;48.116;11.580;2022-07-24T02:33:21;95710.00;;;26.10
14023;BMP180;7086;48.116;11.580;2022-07-24T02:35:50;95693.00;;;26.00
14023;BMP180;7086;48.116;11.580;2022-07-24T02:38:32;95695.00;;;26.00
14023;BMP180;7086;48.116;11.580;2022-07-24T02:41:02;95702.00;;;25.90
14023;BMP180;7086;48.116;11.580;2022-07-24T02:43:31;95701.00;;;26.00
14023;BMP180;7086;48.116;11.580;2022-07-24T02:46:03;95705.00;;;26.00
14023;BMP180;7086;48.116;11.580;2022-07-24T02:48:50;95690.00;;;25.90
14023;BMP180;7086;48.116;11.580;2022-07-24T02:51:19;95710.00;;;25.90
14023;BMP180;7086;48.116;11.580;2022-07-24T02:53:51;95710.00;;;25.90
14023;BMP180;7086;48.116;11.580;2022-07-24T02:56:28;95711.00;;;25.90
14023;BMP180;7086;48.116;11.580;2022-07-24T02:59:09;95716.00;;;25.80
14023;BMP180;7086;48.116;11.580;2022-07-24T03:01:51;95706.00;;;25.80
14023;BMP180;7086;48.116;11.580;2022-07-24T03:05:10;95701.00;;;25.80
14023;BMP180;7086;48.116;11.580;2022-07-24T03:07:51;95699.00;;;25.80
14023;BMP180;7086;48.116;11.580;2022-07-24T03:10:22;95698.00;;;25.70
14023;BMP180;7086;48.116;11.580;2022-07-24T03:12:50;95705.00;;;25.70
14023;BMP180;7086;48.116;11.580;2022-07-24T03:15:18;95697.00;;;25.70
14023;BMP180;7086;48.116;11.580;2022-07-24T03:17:51;95699.00;;;25.70
14023;BMP180;7086;48.116;11.580;2022-07-24T03:20:26;95679.00;;;25.60
14023;BMP180;7086;48.116;11.580;2022-07-24T03:22:55;95685.00;;;25.60
14023;BMP180;7086;48.116;11.580;2022-07-24T03:25:24;95698.00;;;25.60
14023;BMP180;7086;48.116;11.580;2022-07-24T03:27:55;95700.00;;;25.60
14023;BMP180;7086;48.116;11.580;2022-07-24T03:30:38;95703.00;;;25.60
14023;BMP180;7086;48.116;11.580;2022-07-24T03:33:07;95704.00;;;25.50
14023;BMP180;7086;48.116;11.580;2022-07-24T03:35:38;95705.00;;;25.50
14023;BMP180;7086;48.116;11.580;2022-07-24T03:38:06;95702.00;;;25.50
14023;BMP180;7086;48.116;11.580;2022-07-24T03:40:34;95704.00;;;25.40
14023;BMP180;7086;48.116;11.580;2022-07-24T03:43:02;95697.00;;;25.40
14023;BMP180;7086;48.116;11.580;2022-07-24T03:45:30;95708.00;;;25.40
14023;BMP180;7086;48.116;11.580;2022-07-24T03:47:58;95697.00;;;25.30
14023;BMP180;7086;48.116;11.580;2022-07-24T03:50:26;95698.00;;;25.30
14023;BMP180;7086;48.116;11.580;2022-07-24T03:52:55;95670.00;;;25.30
14023;BMP180;7086;48.116;11.580;2022-07-24T03:55:22;95686.00;;;25.20
14023;BMP180;7086;48.116;11.580;2022-07-24T03:57:50;95710.00;;;25.20
14023;BMP180;7086;48.116;11.580;2022-07-24T04:00:18;95710.00;;;25.20
14023;BMP180;7086;48.116;11.580;2022-07-24T04:02:46;95708.00;;;25.10
14023;BMP180;7086;48.116;11.580;2022-07-24T04:05:14;95710.00;;;25.10
14023;BMP180;7086;48.116;11.580;2022-07-24T04:07:44;95715.00;;;25.10
14023;BMP180;7086;48.116;11.580;2022-07-24T04:10:15;95724.00;;;25.10
14023;BMP180;7086;48.116;11.580;2022-07-24T04:12:43;95720.00;;;25.10
14023;BMP180;7086;48.116;11.580;2022-07-24T04:15:11;95720.00;;;25.10
14023;BMP180;7086;48.116;11.580;2022-07-24T04:17:39;95723.00;;;25.10
14023;BMP180;7086;48.116;11.580;2022-07-24T04:20:09;95705.00;;;25.10
14023;BMP180;7086;48.116;11.580;2022-07-24T04:22:37;95731.00;;;25.10
14023;BMP180;7086;48.116;11.580;2022-07-24T04:25:06;95734.00;;;25.10
14023;BMP180;7086;48.116;11.580;2022-07-24T04:27:35;95744.00;;;25.10
14023;BMP180;7086;48.116;11.580;2022-07-24T04:30:05;95710.00;;;25.10
14023;BMP180;7086;48.116;11.580;2022-07-24T04:32:33;95722.00;;;25.00
14023;BMP180;7086;48.116;11.580;2022-07-24T04:35:01;95736.00;;;25.20
14023;BMP180;7086;48.116;11.580;2022-07-24T04:37:43;95748.00;;;25.20
14023;BMP180;7086;48.116;11.580;2022-07-24T04:40:17;95756.00;;;25.30
14023;BMP180;7086;48.116;11.580;2022-07-24T04:42:50;95738.00;;;25.30
14023;BMP180;7086;48.116;11.580;2022-07-24T04:45:17;95739.00;;;25.40
14023;BMP180;7086;48.116;11.580;2022-07-24T04:47:45;95728.00;;;25.40
14023;BMP180;7086;48.116;11.580;2022-07-24T04:50:13;95736.00;;;25.50
14023;BMP180;7086;48.116;11.580;2022-07-24T04:52:41;95731.00;;;25.60
14023;BMP180;7086;48.116;11.580;2022-07-24T04:55:10;95734.00;;;25.70
14023;BMP180;7086;48.116;11.580;2022-07-24T04:57:39;95724.00;;;25.70
14023;BMP180;7086;48.116;11.580;2022-07-24T05:00:12;95741.00;;;25.80
14023;BMP180;7086;48.116;11.580;2022-07-24T05:02:41;95748.00;;;25.90
14023;BMP180;7086;48.116;11.580;2022-07-24T05:05:11;95744.00;;;26.00
14023;BMP180;7086;48.116;11.580;2022-07-24T05:07:39;95751.00;;;26.10
14023;BMP180;7086;48.116;11.580;2022-07-24T05:10:08;95766.00;;;26.30
14023;BMP180;7086;48.116;11.580;2022-07-24T05:12:35;95737.00;;;26.40
14023;BMP180;7086;48.116;11.580;2022-07-24T05:15:04;95759.00;;;26.50
14023;BMP180;7086;48.116;11.580;2022-07-24T05:17:34;95734.00;;;26.60
14023;BMP180;7086;48.116;11.580;2022-07-24T05:20:02;95752.00;;;26.70
14023;BMP180;7086;48.116;11.580;2022-07-24T05:22:30;95759.00;;;26.90
14023;BMP180;7086;48.116;11.580;2022-07-24T05:24:58;95758.00;;;27.00
14023;BMP180;7086;48.116;11.580;2022-07-24T05:27:26;95759.00;;;27.10
14023;BMP180;7086;48.116;11.580;2022-07-24T05:29:54;95759.00;;;27.20
14023;BMP180;7086;48.116;11.580;2022-07-24T05:32:23;95754.00;;;27.30
14023;BMP180;7086;48.116;11.580;2022-07-24T05:34:52;95729.00;;;27.40
14023;BMP180;7086;48.116;11.580;2022-07-24T05:37:21;95761.00;;;27.50
14023;BMP180;7086;48.116;11.580;2022-07-24T05:39:49;95758.00;;;27.60
14023;BMP180;7086;48.116;11.580;2022-07-24T05:42:17;95768.00;;;27.60
14023;BMP180;7086;48.116;11.580;2022-07-24T05:44:46;95770.00;;;27.70
14023;BMP180;7086;48.116;11.580;2022-07-24T05:47:14;95764.00;;;27.80
14023;BMP180;7086;48.116;11.580;2022-07-24T05:49:41;95757.00;;;27.90
14023;BMP180;7086;48.116;11.580;2022-07-24T05:52:10;95761.00;;;28.00
14023;BMP180;7086;48.116;11.580;2022-07-24T05:54:38;95760.00;;;28.20
14023;BMP180;7086;48.116;11.580;2022-07-24T05:57:06;95761.00;;;28.50
14023;BMP180;7086;48.116;11.580;2022-07-24T05:59:34;95759.00;;;28.90
14023;BMP180;7086;48.116;11.580;2022-07-24T06:02:01;95744.00;;;29.30
14023;BMP180;7086;48.116;11.580;2022-07-24T06:04:30;95756.00;;;29.70
14023;BMP180;7086;48.116;11.580;2022-07-24T06:07:01;95751.00;;;30.20
14023;BMP180;7086;48.116;11.580;2022-07-24T06:09:30;95758.00;;;30.70
14023;BMP180;7086;48.116;11.580;2022-07-24T06:11:58;95761.00;;;31.10
14023;BMP180;7086;48.116;11.580;2022-07-24T06:14:27;95758.00;;;31.60
14023;BMP180;7086;48.116;11.580;2022-07-24T06:16:55;95751.00;;;32.10
14023;BMP180;7086;48.116;11.580;2022-07-24T06:19:23;95758.00;;;32.50
14023;BMP180;7086;48.116;11.580;2022-07-24T06:21:52;95759.00;;;32.80
14023;BMP180;7086;48.116;11.580;2022-07-24T06:24:20;95758.00;;;33.40
14023;BMP180;7086;48.116;11.580;2022-07-24T06:26:49;95721.00;;;33.80
14023;BMP180;7086;48.116;11.580;2022-07-24T06:29:17;95717.00;;;34.20
14023;BMP180;7086;48.116;11.580;2022-07-24T06:31:44;95755.00;;;34.60
14023;BMP180;7086;48.116;11.580;2022-07-24T06:34:12;95754.00;;;35.00
14023;BMP180;7086;48.116;11.580;2022-07-24T06:36:40;95754.00;;;35.30
14023;BMP180;7086;48.116;11.580;2022-07-24T06:39:10;95758.00;;;35.60
14023;BMP180;7086;48.116;11.580;2022-07-24T06:41:39;95726.00;;;35.70
14023;BMP180;7086;48.116;11.580;2022-07-24T06:44:08;95754.00;;;35.90
14023;BMP180;7086;48.116;11.580;2022-07-24T06:46:37;95762.00;;;36.10
14023;BMP180;7086;48.116;11.580;2022-07-24T06:49:04;95760.00;;;36.20
14023;BMP180;7086;48.116;11.580;2022-07-24T06:51:32;95752.00;;;36.30
14023;BMP180;7086;48.116;11.580;2022-07-24T06:54:00;95756.00;;;36.50
14023;BMP180;7086;48.116;11.580;2022-07-24T06:56:28;95759.00;;;36.60
14023;BMP180;7086;48.116;11.580;2022-07-24T06:58:56;95760.00;;;36.80
14023;BMP180;7086;48.116;11.580;2022-07-24T07:01:26;95757.00;;;36.90
14023;BMP180;7086;48.116;11.580;2022-07-24T07:03:54;95761.00;;;37.20
14023;BMP180;7086;48.116;11.580;2022-07-24T07:06:21;95762.00;;;37.30
14023;BMP180;7086;48.116;11.580;2022-07-24T07:08:49;95765.00;;;37.40
14023;BMP180;7086;48.116;11.580;2022-07-24T07:11:18;95760.00;;;37.50
14023;BMP180;7086;48.116;11.580;2022-07-24T07:13:46;95769.00;;;37.60
14023;BMP180;7086;48.116;11.580;2022-07-24T07:16:13;95766.00;;;37.80
14023;BMP180;7086;48.116;11.580;2022-07-24T07:18:43;95770.00;;;38.00
14023;BMP180;7086;48.116;11.580;2022-07-24T07:21:12;95773.00;;;38.20
14023;BMP180;7086;48.116;11.580;2022-07-24T07:23:40;95770.00;;;38.40
14023;BMP180;7086;48.116;11.580;2022-07-24T07:26:08;95749.00;;;38.50
14023;BMP180;7086;48.116;11.580;2022-07-24T07:28:36;95769.00;;;38.70
14023;BMP180;7086;48.116;11.580;2022-07-24T07:31:04;95775.00;;;38.80
14023;BMP180;7086;48.116;11.580;2022-07-24T07:33:32;95762.00;;;38.90
14023;BMP180;7086;48.116;11.580;2022-07-24T07:36:01;95775.00;;;39.00
14023;BMP180;7086;48.116;11.580;2022-07-24T07:38:30;95772.00;;;39.10
14023;BMP180;7086;48.116;11.580;2022-07-24T07:40:58;95772.00;;;39.20
14023;BMP180;7086;48.116;11.580;2022-07-24T07:43:26;95769.00;;;39.10
14023;BMP180;7086;48.116;11.580;2022-07-24T07:45:56;95725.00;;;39.10
14023;BMP180;7086;48.116;11.580;2022-07-24T07:48:25;95774.00;;;39.20
14023;BMP180;7086;48.116;11.580;2022-07-24T07:50:54;95766.00;;;39.30
14023;BMP180;7086;48.116;11.580;2022-07-24T07:53:24;95768.00;;;39.40
14023;BMP180;7086;48.116;11.580;2022-07-24T07:55:52;95778.00;;;39.50
14023;BMP180;7086;48.116;11.580;2022-07-24T07:58:21;95775.00;;;39.60
14023;BMP180;7086;48.116;11.580;2022-07-24T08:00:50;95771.00;;;39.70
14023;BMP180;7086;48.116;11.580;2022-07-24T08:03:18;95770.00;;;39.80
14023;BMP180;7086;48.116;11.580;2022-07-24T08:05:47;95772.00;;;39.80
14023;BMP180;7086;48.116;11.580;2022-07-24T08:08:15;95775.00;;;39.80
14023;BMP180;7086;48.116;11.580;2022-07-24T08:10:45;95778.00;;;40.00
14023;BMP180;7086;48.116;11.580;2022-07-24T08:13:12;95786.00;;;40.00
14023;BMP180;7086;48.116;11.580;2022-07-24T08:15:44;95777.00;;;40.10
14023;BMP180;7086;48.116;11.580;2022-07-24T08:18:12;95771.00;;;40.10
14023;BMP180;7086;48.116;11.580;2022-07-24T08:20:40;95768.00;;;40.20
14023;BMP180;7086;48.116;11.580;2022-07-24T08:23:09;95775.00;;;40.30
14023;BMP180;7086;48.116;11.580;2022-07-24T08:25:36;95775.00;;;40.20
14023;BMP180;7086;48.116;11.580;2022-07-24T08:28:06;95749.00;;;40.20
14023;BMP180;7086;48.116;11.580;2022-07-24T08:30:33;95772.00;;;40.20
14023;BMP180;7086;48.116;11.580;2022-07-24T08:33:01;95779.00;;;40.40
14023;BMP180;7086;48.116;11.580;2022-07-24T08:35:29;95776.00;;;40.60
14023;BMP180;7086;48.116;11.580;2022-07-24T08:37:57;95776.00;;;40.70
14023;BMP180;7086;48.116;11.580;2022-07-24T08:40:25;95768.00;;;40.80
14023;BMP180;7086;48.116;11.580;2022-07-24T08:42:53;95773.00;;;40.90
14023;BMP180;7086;48.116;11.580;2022-07-24T08:45:22;95759.00;;;40.80
14023;BMP180;7086;48.116;11.580;2022-07-24T08:47:51;95779.00;;;40.70
14023;BMP180;7086;48.116;11.580;2022-07-24T08:50:19;95782.00;;;40.60
14023;BMP180;7086;48.116;11.580;2022-07-24T08:52:47;95775.00;;;40.50
14023;BMP180;7086;48.116;11.580;2022-07-24T08:55:16;95754.00;;;40.50
14023;BMP180;7086;48.116;11.580;2022-07-24T08:57:44;95771.00;;;40.60
14023;BMP180;7086;48.116;11.580;2022-07-24T09:00:13;95751.00;;;40.60
14023;BMP180;7086;48.116;11.580;2022-07-24T09:02:43;95759.00;;;40.60
14023;BMP180;7086;48.116;11.580;2022-07-24T09:05:12;95779.00;;;40.60
14023;BMP180;7086;48.116;11.580;2022-07-24T09:07:39;95773.00;;;40.70
14023;BMP180;7086;48.116;11.580;2022-07-24T09:10:11;95768.00;;;40.90
14023;BMP180;7086;48.116;11.580;2022-07-24T09:12:41;95763.00;;;41.10
14023;BMP180;7086;48.116;11.580;2022-07-24T09:15:16;95762.00;;;41.30
14023;BMP180;7086;48.116;11.580;2022-07-24T09:17:51;95744.00;;;41.20
14023;BMP180;7086;48.116;11.580;2022-07-24T09:20:19;95775.00;;;40.90
14023;BMP180;7086;48.116;11.580;2022-07-24T09:22:49;95764.00;;;40.30
14023;BMP180;7086;48.116;11.580;2022-07-24T09:25:19;95763.00;;;39.70
14023;BMP180;7086;48.116;11.580;2022-07-24T09:27:50;95766.00;;;39.10
14023;BMP180;7086;48.116;11.580;2022-07-24T09:30:28;95747.00;;;38.70
14023;BMP180;7086;48.116;11.580;2022-07-24T09:33:01;95754.00;;;38.60
14023;BMP180;7086;48.116;11.580;2022-07-24T09:35:33;95764.00;;;38.70
14023;BMP180;7086;48.116;11.580;2022-07-24T09:38:05;95747.00;;;38.80
14023;BMP180;7086;48.116;11.580;2022-07-24T09:40:35;95760.00;;;38.90
14023;BMP180;7086;48.116;11.580;2022-07-24T09:43:14;95743.00;;;38.80
14023;BMP180;7086;48.116;11.580;2022-07-24T09:45:56;95742.00;;;38.60
14023;BMP180;7086;48.116;11.580;2022-07-24T09:48:28;95750.00;;;38.50
14023;BMP180;7086;48.116;11.580;2022-07-24T09:50:59;95753.00;;;38.40
14023;BMP180;7086;48.116;11.580;2022-07-24T09:53:29;95751.00;;;38.40
14023;BMP180;7086;48.116;11.580;2022-07-24T09:56:00;95754.00;;;38.60
14023;BMP180;7086;48.116;11.580;2022-07-24T09:58:29;95750.00;;;38.80
14023;BMP180;7086;48.116;11.580;2022-07-24T10:00:59;95751.00;;;39.00
14023;BMP180;7086;48.116;11.580;2022-07-24T10:03:33;95744.00;;;39.20
14023;BMP180;7086;48.116;11.580;2022-07-24T10:06:05;95716.00;;;39.40
14023;BMP180;7086;48.116;11.580;2022-07-24T10:08:35;95740.00;;;39.60
14023;BMP180;7086;48.116;11.580;2022-07-24T10:11:04;95748.00;;;39.60
14023;BMP180;7086;48.116;11.580;2022-07-24T10:13:34;95750.00;;;39.50
14023;BMP180;7086;48.116;11.580;2022-07-24T10:16:29;95753.00;;;39.40
14023;BMP180;7086;48.116;11.580;2022-07-24T10:19:03;95736.00;;;39.30
14023;BMP180;7086;48.116;11.580;2022-07-24T10:21:35;95741.00;;;39.20
14023;BMP180;7086;48.116;11.580;2022-07-24T10:24:55;95731.00;;;39.40
14023;BMP180;7086;48.116;11.580;2022-07-24T10:27:30;95744.00;;;39.60
14023;BMP180;7086;48.116;11.580;2022-07-24T10:30:03;95734.00;;;39.70
14023;BMP180;7086;48.116;11.580;2022-07-24T10:32:34;95718.00;;;39.60
14023;BMP180;7086;48.116;11.580;2022-07-24T10:35:15;95734.00;;;39.70
14023;BMP180;7086;48.116;11.580;2022-07-24T10:38:01;95727.00;;;39.70
14023;BMP180;7086;48.116;11.580;2022-07-24T10:40:45;95670.00;;;39.70
14023;BMP180;7086;48.116;11.580;2022-07-24T10:43:17;95737.00;;;39.70
14023;BMP180;7086;48.116;11.580;2022-07-24T10:46:11;95720.00;;;39.50
14023;BMP180;7086;48.116;11.580;2022-07-24T10:48:41;95727.00;;;39.40
14023;BMP180;7086;48.116;11.580;2022-07-24T10:51:13;95716.00;;;39.40
14023;BMP180;7086;48.116;11.580;2022-07-24T10:53:53;95717.00;;;39.30
14023;BMP180;7086;48.116;11.580;2022-07-24T10:56:28;95699.00;;;39.00
14023;BMP180;7086;48.116;11.580;2022-07-24T10:59:00;95704.00;;;38.90
14023;BMP180;7086;48.116;11.580;2022-07-24T11:01:32;95716.00;;;38.80
14023;BMP180;7086;48.116;11.580;2022-07-24T11:04:01;95719.00;;;38.60
14023;BMP180;7086;48.116;11.580;2022-07-24T11:06:45;95726.00;;;38.40
14023;BMP180;7086;48.116;11.580;2022-07-24T11:09:14;95708.00;;;38.40
14023;BMP180;7086;48.116;11.580;2022-07-24T11:12:02;95723.00;;;38.40
14023;BMP180;7086;48.116;11.580;2022-07-24T11:14:47;95722.00;;;38.20
14023;BMP180;7086;48.116;11.580;2022-07-24T11:17:39;95704.00;;;37.60
14023;BMP180;7086;48.116;11.580;2022-07-24T11:20:10;95683.00;;;37.50
14023;BMP180;7086;48.116;11.580;2022-07-24T11:22:45;95696.00;;;37.30
14023;BMP180;7086;48.116;11.580;2022-07-24T11:25:18;95703.00;;;36.80
14023;BMP180;7086;48.116;11.580;2022-07-24T11:27:55;95698.00;;;36.90
14023;BMP180;7086;48.116;11.580;2022-07-24T11:30:28;95659.00;;;36.60
14023;BMP180;7086;48.116;11.580;2022-07-24T11:32:58;95690.00;;;36.50
14023;BMP180;7086;48.116;11.580;2022-07-24T11:35:32;95678.00;;;36.30
14023;BMP180;7086;48.116;11.580;2022-07-24T11:38:04;95675.00;;;36.10
14023;BMP180;7086;48.116;11.580;2022-07-24T11:40:34;95688.00;;;36.00
14023;BMP180;7086;48.116;11.580;2022-07-24T11:43:06;95689.00;;;35.90
14023;BMP180;7086;48.116;11.580;2022-07-24T11:45:35;95696.00;;;36.10
14023;BMP180;7086;48.116;11.580;2022-07-24T11:48:05;95686.00;;;36.20
14023;BMP180;7086;48.116;11.580;2022-07-24T11:50:33;95681.00;;;36.40
14023;BMP180;7086;48.116;11.580;2022-07-24T11:53:07;95671.00;;;36.50
14023;BMP180;7086;48.116;11.580;2022-07-24T11:55:35;95671.00;;;36.80
14023;BMP180;7086;48.116;11.580;2022-07-24T11:58:04;95674.00;;;36.90
14023;BMP180;7086;48.116;11.580;2022-07-24T12:00:41;95671.00;;;37.00
14023;BMP180;7086;48.116;11.580;2022-07-24T12:03:10;95650.00;;;37.00
14023;BMP180;7086;48.116;11.580;2022-07-24T12:05:40;95665.00;;;37.00
14023;BMP180;7086;48.116;11.580;2022-07-24T12:08:18;95632.00;;;36.90
14023;BMP180;7086;48.116;11.580;2022-07-24T12:10:47;95667.00;;;36.80
14023;BMP180;7086;48.116;11.580;2022-07-24T12:13:16;95649.00;;;36.60
14023;BMP180;7086;48.116;11.580;2022-07-24T12:15:44;95662.00;;;36.40
14023;BMP180;7086;48.116;11.580;2022-07-24T12:18:14;95661.00;;;36.20
14023;BMP180;7086;48.116;11.580;2022-07-24T12:20:44;95669.00;;;36.10
14023;BMP180;7086;48.116;11.580;2022-07-24T12:23:16;95654.00;;;36.00
14023;BMP180;7086;48.116;11.580;2022-07-24T12:25:45;95662.00;;;35.90
14023;BMP180;7086;48.116;11.580;2022-07-24T12:28:15;95627.00;;;35.80
14023;BMP180;7086;48.116;11.580;2022-07-24T12:30:45;95657.00;;;35.80
14023;BMP180;7086;48.116;11.580;2022-07-24T12:33:21;95650.00;;;35.70
14023;BMP180;7086;48.116;11.580;2022-07-24T12:35:55;95608.00;;;35.60
14023;BMP180;7086;48.116;11.580;2022-07-24T12:38:40;95653.00;;;35.50
14023;BMP180;7086;48.116;11.580;2022-07-24T12:41:16;95634.00;;;35.50
14023;BMP180;7086;48.116;11.580;2022-07-24T12:43:52;95634.00;;;35.40
14023;BMP180;7086;48.116;11.580;2022-07-24T12:46:32;95614.00;;;35.30
14023;BMP180;7086;48.116;11.580;2022-07-24T12:49:07;95655.00;;;35.40
14023;BMP180;7086;48.116;11.580;2022-07-24T12:51:51;95611.00;;;35.40
14023;BMP180;7086;48.116;11.580;2022-07-24T12:55:11;95626.00;;;35.50
14023;BMP180;7086;48.116;11.580;2022-07-24T12:57:48;95629.00;;;35.60
14023;BMP180;7086;48.116;11.580;2022-07-24T13:00:56;95633.00;;;35.30
14023;BMP180;7086;48.116;11.580;2022-07-24T13:03:38;95621.00;;;35.60
14023;BMP180;7086;48.116;11.580;2022-07-24T13:06:29;95628.00;;;35.70
14023;BMP180;7086;48.116;11.580;2022-07-24T13:09:02;95625.00;;;35.70
14023;BMP180;7086;48.116;11.580;2022-07-24T13:11:47;95622.00;;;35.80
14023;BMP180;7086;48.116;11.580;2022-07-24T13:14:18;95595.00;;;35.90
14023;BMP180;7086;48.116;11.580;2022-07-24T13:16:50;95571.00;;;36.00
14023;BMP180;7086;48.116;11.580;2022-07-24T13:19:34;95559.00;;;36.10
14023;BMP180;7086;48.116;11.580;2022-07-24T13:22:06;95608.00;;;36.10
14023;BMP180;7086;48.116;11.580;2022-07-24T13:24:37;95627.00;;;36.20
14023;BMP180;7086;48.116;11.580;2022-07-24T13:27:10;95599.00;;;36.20
14023;BMP180;7086;48.116;11.580;2022-07-24T13:29:42;95585.00;;;36.20
14023;BMP180;7086;48.116;11.580;2022-07-24T13:32:17;95597.00;;;36.30
14023;BMP180;7086;48.116;11.580;2022-07-24T13:34:47;95572.00;;;36.30
14023;BMP180;7086;48.116;11.580;2022-07-24T13:37:19;95588.00;;;36.30
14023;BMP180;7086;48.116;11.580;2022-07-24T13:39:50;95519.00;;;36.30
14023;BMP180;7086;48.116;11.580;2022-07-24T13:42:25;95567.00;;;36.20
14023;BMP180;7086;48.116;11.580;2022-07-24T13:45:01;95576.00;;;36.30
14023;BMP180;7086;48.116;11.580;2022-07-24T13:47:36;95578.00;;;36.30
14023;BMP180;7086;48.116;11.580;2022-07-24T13:50:05;95570.00;;;36.40
14023;BMP180;7086;48.116;11.580;2022-07-24T13:52:33;95569.00;;;36.40
14023;BMP180;7086;48.116;11.580;2022-07-24T13:55:02;95569.00;;;36.40
14023;BMP180;7086;48.116;11.580;2022-07-24T13:57:31;95569.00;;;36.40
14023;BMP180;7086;48.116;11.580;2022-07-24T13:59:59;95564.00;;;36.30
14023;BMP180;7086;48.116;11.580;2022-07-24T14:02:26;95563.00;;;36.30
14023;BMP180;7086;48.116;11.580;2022-07-24T14:04:57;95572.00;;;36.20
14023;BMP180;7086;48.116;11.580;2022-07-24T14:07:25;95549.00;;;36.20
14023;BMP180;7086;48.116;11.580;2022-07-24T14:09:53;95549.00;;;36.20
14023;BMP180;7086;48.116;11.580;2022-07-24T14:12:22;95548.00;;;36.10
14023;BMP180;7086;48.116;11.580;2022-07-24T14:14:53;95549.00;;;36.00
14023;BMP180;7086;48.116;11.580;2022-07-24T14:17:21;95549.00;;;35.90
14023;BMP180;7086;48.116;11.580;2022-07-24T14:19:51;95546.00;;;35.90
14023;BMP180;7086;48.116;11.580;2022-07-24T14:22:19;95535.00;;;35.80
14023;BMP180;7086;48.116;11.580;2022-07-24T14:24:47;95543.00;;;35.80
14023;BMP180;7086;48.116;11.580;2022-07-24T14:27:16;95538.00;;;35.70
14023;BMP180;7086;48.116;11.580;2022-07-24T14:29:45;95541.00;;;35.60
14023;BMP180;7086;48.116;11.580;2022-07-24T14:32:15;95536.00;;;35.60
14023;BMP180;7086;48.116;11.580;2022-07-24T14:34:44;95525.00;;;35.50
14023;BMP180;7086;48.116;11.580;2022-07-24T14:37:13;95535.00;;;35.50
14023;BMP180;7086;48.116;11.580;2022-07-24T14:39:41;95536.00;;;35.50
14023;BMP180;7086;48.116;11.580;2022-07-24T14:42:09;95533.00;;;35.50
14023;BMP180;7086;48.116;11.580;2022-07-24T14:44:41;95536.00;;;35.50
14023;BMP180;7086;48.116;11.580;2022-07-24T14:47:09;95530.00;;;35.50
14023;BMP180;7086;48.116;11.580;2022-07-24T14:49:39;95532.00;;;35.50
14023;BMP180;7086;48.116;11.580;2022-07-24T14:52:06;95521.00;;;35.50
14023;BMP180;7086;48.116;11.580;2022-07-24T14:54:35;95526.00;;;35.40
14023;BMP180;7086;48.116;11.580;2022-07-24T14:57:03;95523.00;;;35.40
14023;BMP180;7086;48.116;11.580;2022-07-24T14:59:33;95521.00;;;35.30
14023;BMP180;7086;48.116;11.580;2022-07-24T15:02:03;95521.00;;;35.30
14023;BMP180;7086;48.116;11.580;2022-07-24T15:04:31;95522.00;;;35.40
14023;BMP180;7086;48.116;11.580;2022-07-24T15:07:02;95519.00;;;35.40
14023;BMP180;7086;48.116;11.580;2022-07-24T15:09:32;95515.00;;;35.40
14023;BMP180;7086;48.116;11.580;2022-07-24T15:12:03;95479.00;;;35.40
14023;BMP180;7086;48.116;11.580;2022-07-24T15:14:31;95511.00;;;35.40
14023;BMP180;7086;48.116;11.580;2022-07-24T15:16:59;95510.00;;;35.40
14023;BMP180;7086;48.116;11.580;2022-07-24T15:19:39;95506.00;;;35.50